Time;durP1;ratioP1;P1;durP2;ratioP2;P2;SDS_P1;SDS_P2;PMS_P1;PMS_P2;Temp;Humidity;BMP_temperature;BMP_pressure;BME280_temperature;BME280_humidity;BME280_pressure;Samples;Min_cycle;Max_cycle;Signal;HPM_P1;HPM_P2
2023/02/22 00:03:58;;;;;;;60.20;24.80;;;8.60;99.90;;;;;;5010964;28;20045;-74
2023/02/22 00:06:24;;;;;;;52.22;23.30;;;8.60;99.90;;;;;;5035678;28;20557;-74
2023/02/22 00:08:51;;;;;;;52.78;23.70;;;8.50;99.90;;;;;;5033885;28;20517;-74
2023/02/22 00:11:17;;;;;;;50.08;22.45;;;8.50;99.90;;;;;;5002249;28;20059;-74
2023/02/22 00:13:43;;;;;;;53.90;24.17;;;8.50;99.90;;;;;;4999343;28;20473;-74
2023/02/22 00:16:16;;;;;;;54.33;24.52;;;8.50;99.90;;;;;;5006497;28;20050;-74
2023/02/22 00:18:43;;;;;;;59.05;23.98;;;8.50;99.90;;;;;;5034041;28;20131;-74
2023/02/22 00:21:09;;;;;;;51.92;22.63;;;8.50;99.90;;;;;;4994741;28;20057;-74
2023/02/22 00:23:38;;;;;;;55.08;24.23;;;8.50;99.90;;;;;;5001340;28;20136;-75
2023/02/22 00:26:04;;;;;;;58.33;24.08;;;8.50;99.90;;;;;;4996607;28;20045;-74
2023/02/22 00:28:30;;;;;;;66.10;26.50;;;8.40;99.90;;;;;;5000401;28;20050;-74
2023/02/22 00:30:56;;;;;;;58.45;23.42;;;8.40;99.90;;;;;;5010504;28;20127;-74
2023/02/22 00:33:22;;;;;;;64.65;26.08;;;8.40;99.90;;;;;;4998627;28;20524;-74
2023/02/22 00:35:47;;;;;;;58.38;23.65;;;8.40;99.90;;;;;;4982820;28;20065;-74
2023/02/22 00:38:15;;;;;;;54.50;24.02;;;8.30;99.90;;;;;;5025240;28;20073;-73
2023/02/22 00:40:41;;;;;;;60.47;24.15;;;8.30;99.90;;;;;;5021778;28;20107;-74
2023/02/22 00:43:06;;;;;;;56.67;24.73;;;8.30;99.90;;;;;;5021162;28;20590;-74
2023/02/22 00:45:33;;;;;;;55.10;24.88;;;8.20;99.90;;;;;;5033156;28;20111;-74
2023/02/22 00:47:59;;;;;;;62.90;24.92;;;8.30;99.90;;;;;;5006143;28;20088;-74
2023/02/22 00:50:25;;;;;;;60.03;24.80;;;8.30;99.90;;;;;;5013236;28;20057;-74
2023/02/22 00:52:52;;;;;;;68.20;26.08;;;8.30;99.90;;;;;;5006489;28;20088;-74
2023/02/22 00:55:20;;;;;;;55.92;23.17;;;8.30;99.90;;;;;;5023797;28;20046;-74
2023/02/22 00:57:46;;;;;;;55.53;23.98;;;8.30;99.90;;;;;;5028046;28;20046;-74
2023/02/22 01:00:17;;;;;;;60.00;24.50;;;8.30;99.90;;;;;;5033630;28;20056;-74
2023/02/22 01:02:43;;;;;;;58.63;25.45;;;8.30;99.90;;;;;;5027264;28;20132;-74
2023/02/22 01:05:11;;;;;;;70.43;27.40;;;8.40;99.90;;;;;;5025540;28;20128;-74
2023/02/22 01:07:37;;;;;;;57.80;23.38;;;8.30;99.90;;;;;;5022231;28;20042;-74
2023/02/22 01:10:04;;;;;;;58.10;23.52;;;8.30;99.90;;;;;;5042089;28;20056;-74
2023/02/22 01:12:30;;;;;;;55.85;22.85;;;8.40;99.90;;;;;;5027479;28;20098;-74
2023/02/22 01:14:57;;;;;;;59.45;24.48;;;8.30;99.90;;;;;;5013504;28;20071;-74
2023/02/22 01:17:26;;;;;;;59.72;24.05;;;8.40;99.90;;;;;;4967288;28;20049;-74
2023/02/22 01:19:52;;;;;;;54.22;22.50;;;8.40;99.90;;;;;;5004182;28;20057;-74
2023/02/22 01:22:18;;;;;;;54.05;21.13;;;8.40;99.90;;;;;;4987484;28;20046;-74
2023/02/22 01:24:44;;;;;;;58.58;23.10;;;8.40;99.90;;;;;;5004626;28;20156;-74
2023/02/22 01:27:10;;;;;;;61.55;23.83;;;8.40;99.90;;;;;;5020537;28;20510;-74
2023/02/22 01:29:36;;;;;;;58.97;25.13;;;8.40;99.90;;;;;;5018770;28;20073;-74
2023/02/22 01:32:01;;;;;;;58.38;26.02;;;8.40;99.90;;;;;;5003719;28;20088;-74
2023/02/22 01:34:29;;;;;;;62.35;26.30;;;8.40;99.90;;;;;;5040391;28;20052;-74
2023/02/22 01:36:55;;;;;;;52.70;22.45;;;8.40;99.90;;;;;;5024218;28;20211;-74
2023/02/22 01:39:21;;;;;;;58.83;25.02;;;8.40;99.90;;;;;;5011548;28;20335;-74
2023/02/22 01:41:47;;;;;;;65.55;25.92;;;8.40;99.90;;;;;;5024079;28;20099;-74
2023/02/22 01:44:32;;;;;;;52.20;23.65;;;8.40;99.90;;;;;;5007133;28;20432;-74
2023/02/22 01:46:59;;;;;;;56.72;22.50;;;8.40;99.90;;;;;;5024588;28;20104;-74
2023/02/22 01:49:27;;;;;;;45.80;19.95;;;8.40;99.90;;;;;;5011372;28;20057;-74
2023/02/22 01:51:54;;;;;;;51.35;20.88;;;8.30;99.90;;;;;;5019136;28;20049;-74
2023/02/22 01:54:29;;;;;;;56.78;21.05;;;8.30;99.90;;;;;;5021015;28;20135;-74
2023/02/22 01:57:11;;;;;;;55.97;23.95;;;8.10;99.90;;;;;;4994108;28;20050;-74
2023/02/22 01:59:38;;;;;;;55.80;21.98;;;7.90;99.90;;;;;;5007066;28;20128;-74
2023/02/22 02:02:04;;;;;;;60.00;24.08;;;8.00;99.90;;;;;;4997410;28;20538;-74
2023/02/22 02:04:29;;;;;;;52.65;23.40;;;8.00;99.90;;;;;;5002503;28;20085;-74
2023/02/22 02:06:57;;;;;;;50.58;21.20;;;8.00;99.90;;;;;;5038976;28;20365;-74
2023/02/22 02:10:06;;;;;;;52.40;21.08;;;8.10;99.90;;;;;;5028823;28;20497;-75
2023/02/22 02:12:33;;;;;;;52.70;21.15;;;8.00;99.90;;;;;;5031408;28;20358;-74
2023/02/22 02:15:22;;;;;;;46.55;20.90;;;7.90;99.90;;;;;;5023924;28;20044;-74
2023/02/22 02:17:48;;;;;;;47.88;20.13;;;7.70;99.90;;;;;;5028954;28;20558;-74
2023/02/22 02:20:26;;;;;;;47.10;20.63;;;7.60;99.90;;;;;;5010323;28;20040;-74
2023/02/22 02:23:05;;;;;;;59.03;21.35;;;7.70;99.90;;;;;;5044149;28;20056;-74
2023/02/22 02:25:37;;;;;;;;;;;7.60;99.90;;;;;;5025629;28;20049;-74
2023/02/22 02:28:18;;;;;;;60.92;22.27;;;7.70;99.90;;;;;;5040103;28;19940;-74
2023/02/22 02:31:13;;;;;;;57.22;21.83;;;7.50;99.90;;;;;;5028487;28;20778;-74
2023/02/22 02:33:55;;;;;;;50.80;20.65;;;7.40;99.90;;;;;;5018721;28;20093;-74
2023/02/22 02:36:32;;;;;;;48.65;21.08;;;7.40;99.90;;;;;;5001236;28;20088;-73
2023/02/22 02:39:05;;;;;;;57.75;22.85;;;7.40;99.90;;;;;;4987477;28;20401;-74
2023/02/22 02:41:42;;;;;;;59.10;23.17;;;7.40;99.90;;;;;;5019421;28;20041;-75
2023/02/22 02:44:12;;;;;;;57.65;22.73;;;7.40;99.90;;;;;;5025685;28;20581;-75
2023/02/22 02:46:47;;;;;;;50.88;22.08;;;7.30;99.90;;;;;;5028506;28;20521;-75
2023/02/22 02:49:18;;;;;;;71.55;24.23;;;7.20;99.90;;;;;;5002369;28;20358;-75
2023/02/22 02:51:49;;;;;;;61.95;24.40;;;7.30;99.90;;;;;;5021103;28;20061;-75
2023/02/22 02:54:16;;;;;;;55.35;23.60;;;7.20;99.90;;;;;;4979721;28;20049;-75
2023/02/22 02:56:42;;;;;;;52.53;21.40;;;7.40;99.90;;;;;;5008062;28;20046;-75
2023/02/22 02:59:34;;;;;;;61.03;24.17;;;7.30;99.90;;;;;;5025241;28;20116;-75
2023/02/22 03:02:18;;;;;;;63.53;24.02;;;7.30;99.90;;;;;;4978015;28;20132;-75
2023/02/22 03:05:16;;;;;;;52.95;21.40;;;7.20;99.90;;;;;;4971997;28;20133;-75
2023/02/22 03:08:06;;;;;;;55.90;21.00;;;7.20;99.90;;;;;;5029620;28;20144;-75
2023/02/22 03:10:54;;;;;;;62.80;23.08;;;7.20;99.90;;;;;;5003603;28;20497;-75
2023/02/22 03:13:32;;;;;;;65.10;23.77;;;7.20;99.90;;;;;;5012901;28;20060;-75
2023/02/22 03:16:10;;;;;;;61.00;22.45;;;7.10;99.90;;;;;;5019359;28;20462;-75
2023/02/22 03:18:48;;;;;;;59.15;22.25;;;7.10;99.90;;;;;;5015715;28;20041;-74
2023/02/22 03:21:16;;;;;;;57.60;21.83;;;7.20;99.90;;;;;;4993900;28;20046;-74
2023/02/22 03:24:13;;;;;;;56.22;22.52;;;7.10;99.90;;;;;;5018355;28;20533;-74
2023/02/22 03:26:42;;;;;;;55.58;21.38;;;7.20;99.90;;;;;;4994274;28;20127;-74
2023/02/22 03:29:10;;;;;;;62.83;22.35;;;7.20;99.90;;;;;;5026966;28;20478;-73
2023/02/22 03:32:03;;;;;;;55.90;21.03;;;7.10;99.90;;;;;;5006625;28;20077;-73
2023/02/22 03:34:41;;;;;;;50.15;19.23;;;7.20;99.90;;;;;;5011876;28;20132;-74
2023/02/22 03:37:18;;;;;;;55.30;21.63;;;7.00;99.90;;;;;;5004714;28;20540;-74
2023/02/22 03:39:43;;;;;;;54.90;20.15;;;7.00;99.90;;;;;;5020126;28;20053;-73
2023/02/22 03:42:14;;;;;;;53.38;22.02;;;7.00;99.90;;;;;;4988075;28;20115;-73
2023/02/22 03:44:40;;;;;;;58.05;21.65;;;6.90;99.90;;;;;;5017595;28;20100;-75
2023/02/22 03:47:10;;;;;;;52.58;20.35;;;6.90;99.90;;;;;;4986722;28;20087;-75
2023/02/22 03:50:06;;;;;;;56.75;21.55;;;6.90;99.90;;;;;;5020475;28;20486;-75
2023/02/22 03:52:33;;;;;;;64.20;21.53;;;6.90;99.90;;;;;;4999055;28;1200452;-75
2023/02/22 03:54:59;;;;;;;59.97;22.10;;;6.90;99.90;;;;;;5019610;28;20053;-75
2023/02/22 03:57:27;;;;;;;52.50;20.60;;;6.90;99.90;;;;;;5026508;28;20041;-75
2023/02/22 03:59:53;;;;;;;52.63;20.67;;;6.80;99.90;;;;;;4998088;28;20038;-75
2023/02/22 04:02:19;;;;;;;51.97;21.13;;;6.80;99.90;;;;;;4997681;28;20041;-74
2023/02/22 04:04:45;;;;;;;73.88;23.98;;;6.80;99.90;;;;;;4999845;28;20049;-73
2023/02/22 04:07:11;;;;;;;53.05;21.05;;;6.80;99.90;;;;;;5029954;28;20084;-75
2023/02/22 04:09:37;;;;;;;58.20;21.83;;;6.80;99.90;;;;;;5028213;28;20041;-75
2023/02/22 04:12:03;;;;;;;46.35;19.05;;;6.80;99.90;;;;;;5016090;28;20046;-75
2023/02/22 04:14:29;;;;;;;58.15;21.00;;;6.70;99.90;;;;;;4995360;28;20079;-73
2023/02/22 04:16:55;;;;;;;56.80;21.45;;;6.70;99.90;;;;;;5008745;28;20526;-75
2023/02/22 04:19:20;;;;;;;43.47;17.42;;;6.70;99.90;;;;;;5017963;28;20518;-75
2023/02/22 04:21:46;;;;;;;46.47;19.20;;;6.60;99.90;;;;;;5019702;28;20068;-75
2023/02/22 04:24:12;;;;;;;46.72;18.25;;;6.70;99.90;;;;;;5028483;28;20530;-75
2023/02/22 04:26:38;;;;;;;47.55;19.38;;;6.70;99.90;;;;;;5024504;28;20053;-75
2023/02/22 04:29:03;;;;;;;54.45;20.38;;;6.70;99.90;;;;;;5016909;28;20041;-75
2023/02/22 04:31:30;;;;;;;49.83;19.27;;;6.60;99.90;;;;;;5010220;28;20049;-75
2023/02/22 04:33:55;;;;;;;41.22;16.95;;;6.70;99.90;;;;;;5016827;28;20429;-75
2023/02/22 04:36:21;;;;;;;51.65;19.25;;;6.60;99.90;;;;;;4983121;28;20390;-75
2023/02/22 04:38:47;;;;;;;53.20;19.02;;;6.50;99.90;;;;;;5005084;28;20045;-75
2023/02/22 04:41:13;;;;;;;49.33;18.30;;;6.50;99.90;;;;;;4988534;28;20096;-75
2023/02/22 04:43:39;;;;;;;56.90;20.58;;;6.50;99.90;;;;;;4998929;28;20057;-75
2023/02/22 04:46:04;;;;;;;46.35;18.75;;;6.50;99.90;;;;;;5007377;28;20049;-75
2023/02/22 04:48:30;;;;;;;49.58;18.30;;;6.50;99.90;;;;;;5025206;28;20424;-75
2023/02/22 04:50:56;;;;;;;50.45;18.38;;;6.40;99.90;;;;;;5003218;28;20069;-75
2023/02/22 04:53:22;;;;;;;50.97;18.10;;;6.40;99.90;;;;;;5018348;28;20049;-75
2023/02/22 04:55:47;;;;;;;42.72;15.82;;;6.40;99.90;;;;;;5003116;28;20041;-75
2023/02/22 04:58:13;;;;;;;49.28;17.25;;;6.40;99.90;;;;;;5022468;28;20390;-75
2023/02/22 05:00:39;;;;;;;47.33;18.00;;;6.40;99.90;;;;;;5020053;28;20046;-75
2023/02/22 05:03:04;;;;;;;46.95;18.30;;;6.40;99.90;;;;;;5012435;28;20060;-75
2023/02/22 05:05:30;;;;;;;48.97;18.50;;;6.30;99.90;;;;;;5003847;28;20085;-75
2023/02/22 05:07:56;;;;;;;59.33;21.48;;;6.30;99.90;;;;;;5037398;28;20052;-75
2023/02/22 05:10:22;;;;;;;38.22;16.63;;;6.30;99.90;;;;;;5028109;28;20049;-75
2023/02/22 05:12:47;;;;;;;43.70;17.40;;;6.40;99.90;;;;;;5014884;28;20045;-75
2023/02/22 05:15:17;;;;;;;46.33;17.08;;;6.30;99.90;;;;;;5007341;28;20048;-74
2023/02/22 05:17:44;;;;;;;49.15;18.73;;;6.20;99.90;;;;;;5004327;28;20463;-75
2023/02/22 05:20:27;;;;;;;45.90;18.10;;;6.20;99.90;;;;;;5030294;28;20041;-75
2023/02/22 05:22:54;;;;;;;51.92;19.02;;;6.10;99.90;;;;;;5018230;28;20041;-75
2023/02/22 05:25:20;;;;;;;39.38;17.02;;;6.00;99.90;;;;;;5015540;28;20042;-75
2023/02/22 05:28:02;;;;;;;38.17;15.35;;;5.90;99.90;;;;;;5022900;28;20057;-75
2023/02/22 05:30:30;;;;;;;36.67;14.68;;;5.90;99.90;;;;;;4998345;28;20374;-75
2023/02/22 05:32:56;;;;;;;47.53;17.30;;;5.90;99.90;;;;;;5007837;28;20053;-75
2023/02/22 05:35:22;;;;;;;32.25;14.65;;;5.80;99.90;;;;;;5027735;28;20044;-75
2023/02/22 05:37:49;;;;;;;39.45;14.50;;;5.80;99.90;;;;;;5009865;28;20570;-75
2023/02/22 05:40:17;;;;;;;40.30;14.95;;;5.80;99.90;;;;;;5027674;28;20060;-75
2023/02/22 05:42:43;;;;;;;39.75;15.50;;;5.80;99.90;;;;;;5007558;28;20137;-75
2023/02/22 05:45:11;;;;;;;30.20;13.73;;;5.90;99.90;;;;;;5014838;28;20433;-74
2023/02/22 05:47:37;;;;;;;37.55;15.07;;;6.00;99.90;;;;;;4999576;28;20383;-74
2023/02/22 05:50:03;;;;;;;30.77;12.73;;;5.90;99.90;;;;;;5012662;28;20042;-75
2023/02/22 05:52:29;;;;;;;34.55;15.27;;;5.80;99.90;;;;;;5008475;28;20068;-75
2023/02/22 05:54:55;;;;;;;41.22;16.75;;;5.70;99.90;;;;;;5028574;28;20076;-75
2023/02/22 05:57:20;;;;;;;36.63;14.55;;;5.80;99.90;;;;;;5017070;28;20042;-75
2023/02/22 05:59:46;;;;;;;37.38;14.48;;;5.70;99.90;;;;;;5023376;28;20049;-75
2023/02/22 06:02:12;;;;;;;37.92;14.93;;;5.70;99.90;;;;;;5023544;28;20079;-75
2023/02/22 06:04:37;;;;;;;33.70;14.02;;;5.70;99.90;;;;;;4994109;28;20050;-73
2023/02/22 06:07:03;;;;;;;39.97;15.75;;;5.80;99.90;;;;;;4980716;28;20051;-74
2023/02/22 06:09:29;;;;;;;41.00;15.88;;;5.80;99.90;;;;;;5007415;28;20054;-75
2023/02/22 06:11:54;;;;;;;36.47;13.95;;;5.70;99.90;;;;;;5012592;28;20092;-75
2023/02/22 06:14:20;;;;;;;33.10;14.98;;;5.60;99.90;;;;;;5005485;28;20052;-75
2023/02/22 06:16:54;;;;;;;32.55;13.20;;;5.60;99.90;;;;;;4990563;28;20393;-74
2023/02/22 06:19:20;;;;;;;33.28;12.75;;;5.70;99.90;;;;;;5030114;28;20041;-74
2023/02/22 06:21:53;;;;;;;41.75;14.63;;;5.80;99.90;;;;;;5001752;28;20042;-74
2023/02/22 06:24:18;;;;;;;39.60;14.32;;;5.80;99.90;;;;;;4999818;28;20537;-75
2023/02/22 06:26:44;;;;;;;28.80;12.82;;;5.70;99.90;;;;;;5017040;28;20058;-76
2023/02/22 06:29:10;;;;;;;35.30;12.90;;;5.70;99.90;;;;;;4995832;28;20320;-76
2023/02/22 06:31:36;;;;;;;32.03;12.95;;;5.90;99.90;;;;;;5010604;28;20107;-75
2023/02/22 06:34:01;;;;;;;36.75;14.40;;;6.00;99.90;;;;;;5037758;28;20041;-75
2023/02/22 06:36:27;;;;;;;34.00;14.98;;;6.00;99.90;;;;;;5022414;28;20034;-75
2023/02/22 06:38:55;;;;;;;32.90;13.90;;;5.90;99.90;;;;;;5028069;28;20045;-75
2023/02/22 06:41:21;;;;;;;35.33;13.55;;;5.90;99.90;;;;;;5026367;28;20056;-75
2023/02/22 06:43:47;;;;;;;31.38;12.07;;;5.90;99.90;;;;;;5020755;28;20045;-75
2023/02/22 06:46:13;;;;;;;27.48;12.20;;;6.00;99.90;;;;;;5038970;28;20041;-74
2023/02/22 06:48:39;;;;;;;28.50;12.02;;;6.10;99.90;;;;;;5013231;28;20053;-74
2023/02/22 06:51:08;;;;;;;31.52;12.98;;;6.10;99.90;;;;;;5029072;28;20063;-75
2023/02/22 06:53:34;;;;;;;27.92;11.90;;;6.00;99.90;;;;;;5024975;28;20041;-76
2023/02/22 06:56:01;;;;;;;29.88;11.70;;;6.10;99.90;;;;;;5022636;28;20304;-76
2023/02/22 06:58:27;;;;;;;25.27;11.50;;;6.20;99.90;;;;;;4999864;28;20047;-76
2023/02/22 07:00:52;;;;;;;26.45;12.10;;;6.10;99.90;;;;;;5022165;28;20033;-76
2023/02/22 07:03:18;;;;;;;28.88;11.80;;;6.20;99.90;;;;;;5026643;28;20053;-75
2023/02/22 07:05:44;;;;;;;26.02;11.18;;;6.30;99.90;;;;;;5015708;28;20387;-75
2023/02/22 07:08:10;;;;;;;33.63;13.05;;;6.30;99.90;;;;;;5010445;28;20054;-74
2023/02/22 07:10:36;;;;;;;29.25;13.15;;;6.30;99.90;;;;;;5010782;28;20794;-75
2023/02/22 07:13:02;;;;;;;28.77;12.00;;;6.30;99.90;;;;;;5028532;28;20486;-74
2023/02/22 07:15:29;;;;;;;28.90;11.75;;;6.50;99.90;;;;;;4988489;28;20142;-75
2023/02/22 07:17:55;;;;;;;27.67;12.23;;;6.60;99.90;;;;;;5006451;28;20037;-75
2023/02/22 07:20:21;;;;;;;25.17;11.25;;;6.60;99.90;;;;;;5002567;28;20397;-75
2023/02/22 07:22:47;;;;;;;28.38;11.63;;;6.60;99.90;;;;;;5021742;28;20048;-75
2023/02/22 07:25:13;;;;;;;32.65;13.02;;;6.70;99.90;;;;;;5015482;28;20478;-75
2023/02/22 07:27:40;;;;;;;35.92;12.73;;;6.70;99.90;;;;;;5021843;28;20045;-75
2023/02/22 07:30:15;;;;;;;27.73;12.82;;;6.80;99.90;;;;;;5008307;28;20081;-75
2023/02/22 07:32:44;;;;;;;29.25;12.95;;;6.80;99.90;;;;;;5037482;28;20138;-75
2023/02/22 07:35:18;;;;;;;26.77;11.90;;;6.90;99.90;;;;;;5014711;28;20077;-75
2023/02/22 07:37:43;;;;;;;31.45;13.13;;;7.00;99.90;;;;;;5000079;28;20046;-74
2023/02/22 07:40:10;;;;;;;31.73;14.07;;;7.00;99.90;;;;;;4995028;28;20041;-74
2023/02/22 07:43:01;;;;;;;28.45;12.73;;;6.90;99.90;;;;;;5020819;28;20107;-75
2023/02/22 07:45:28;;;;;;;28.30;12.55;;;7.00;99.90;;;;;;4987248;28;20462;-75
2023/02/22 07:47:54;;;;;;;30.30;12.65;;;6.90;99.90;;;;;;5025505;28;20458;-76
2023/02/22 07:50:21;;;;;;;27.20;10.75;;;7.00;99.90;;;;;;5017968;28;20050;-75
2023/02/22 07:52:47;;;;;;;27.70;12.45;;;7.00;99.90;;;;;;4999885;28;20132;-75
2023/02/22 07:55:15;;;;;;;26.85;12.05;;;7.00;99.90;;;;;;4983731;28;20080;-75
2023/02/22 07:57:42;;;;;;;30.27;12.35;;;7.10;99.90;;;;;;4992464;28;20057;-75
2023/02/22 08:00:09;;;;;;;28.75;12.57;;;7.20;99.90;;;;;;5000172;28;20038;-73
2023/02/22 08:02:35;;;;;;;28.73;12.07;;;7.20;99.90;;;;;;4995783;28;20124;-75
2023/02/22 08:05:00;;;;;;;28.65;12.20;;;7.20;99.90;;;;;;5031596;28;20046;-75
2023/02/22 08:07:26;;;;;;;32.55;13.35;;;7.30;99.90;;;;;;5021171;28;20076;-74
2023/02/22 08:09:52;;;;;;;27.35;11.63;;;7.40;99.90;;;;;;5004049;28;20422;-75
2023/02/22 08:12:18;;;;;;;30.73;13.50;;;7.30;99.90;;;;;;5003194;28;20069;-75
2023/02/22 08:14:43;;;;;;;29.02;12.77;;;7.30;99.90;;;;;;5025828;28;20049;-75
2023/02/22 08:17:09;;;;;;;27.88;11.55;;;7.40;99.90;;;;;;5005949;28;20505;-75
2023/02/22 08:19:35;;;;;;;29.80;14.02;;;7.40;99.90;;;;;;5022412;28;20049;-75
2023/02/22 08:22:00;;;;;;;31.73;13.25;;;7.50;99.90;;;;;;5021882;28;20484;-75
2023/02/22 08:24:26;;;;;;;30.40;12.63;;;7.60;99.90;;;;;;5035288;28;20045;-76
2023/02/22 08:26:52;;;;;;;26.70;11.52;;;7.60;99.90;;;;;;4988576;28;20505;-75
2023/02/22 08:29:18;;;;;;;27.77;12.40;;;7.70;99.90;;;;;;4999516;28;20396;-75
2023/02/22 08:31:49;;;;;;;25.73;12.38;;;7.80;99.90;;;;;;5007863;28;20052;-75
2023/02/22 08:34:15;;;;;;;26.15;11.70;;;7.90;99.90;;;;;;5001513;28;20100;-75
2023/02/22 08:36:41;;;;;;;31.98;15.68;;;8.00;99.90;;;;;;4998770;28;20470;-75
2023/02/22 08:39:07;;;;;;;23.55;11.07;;;8.00;99.90;;;;;;5005135;28;20111;-76
2023/02/22 08:41:33;;;;;;;25.17;10.73;;;8.10;99.90;;;;;;5010230;28;20053;-75
2023/02/22 08:44:01;;;;;;;20.48;10.38;;;8.10;99.90;;;;;;5022139;28;20129;-75
2023/02/22 08:46:27;;;;;;;20.83;10.60;;;8.20;99.90;;;;;;5022866;28;20045;-73
2023/02/22 08:48:53;;;;;;;22.38;10.38;;;8.20;99.90;;;;;;4988667;28;20053;-75
2023/02/22 08:51:19;;;;;;;25.90;10.63;;;8.30;99.90;;;;;;5005029;28;20058;-76
2023/02/22 08:53:44;;;;;;;23.23;11.30;;;8.40;99.90;;;;;;5024401;28;20140;-76
2023/02/22 08:56:10;;;;;;;23.42;11.02;;;8.50;99.90;;;;;;5027468;28;20117;-76
2023/02/22 08:58:36;;;;;;;21.80;10.35;;;8.60;99.90;;;;;;5006977;28;20053;-76
2023/02/22 09:01:02;;;;;;;19.60;10.18;;;8.70;99.90;;;;;;5017884;28;20120;-76
2023/02/22 09:03:28;;;;;;;20.77;10.30;;;8.80;99.90;;;;;;5024395;28;20050;-75
2023/02/22 09:05:53;;;;;;;18.15;9.00;;;8.90;99.90;;;;;;5000271;28;20049;-75
2023/02/22 09:08:19;;;;;;;19.75;9.73;;;9.00;99.90;;;;;;5008075;28;20060;-75
2023/02/22 09:10:45;;;;;;;17.90;9.25;;;9.10;99.90;;;;;;5027004;28;20069;-75
2023/02/22 09:13:11;;;;;;;22.90;9.95;;;9.30;99.90;;;;;;5027753;28;20061;-75
2023/02/22 09:15:38;;;;;;;14.15;8.57;;;9.40;99.90;;;;;;4999472;28;20115;-76
2023/02/22 09:18:04;;;;;;;15.52;7.90;;;9.50;99.90;;;;;;5006656;28;20042;-76
2023/02/22 09:20:30;;;;;;;14.57;6.93;;;9.80;99.90;;;;;;5032465;28;20047;-76
2023/02/22 09:22:56;;;;;;;18.80;8.48;;;9.90;99.90;;;;;;5020770;28;20049;-75
2023/02/22 09:25:22;;;;;;;13.75;7.28;;;10.00;99.90;;;;;;5027287;28;20057;-75
2023/02/22 09:27:51;;;;;;;13.25;7.13;;;10.10;99.90;;;;;;5003352;28;20120;-74
2023/02/22 09:30:22;;;;;;;12.95;6.78;;;10.20;99.90;;;;;;5020675;28;20111;-74
2023/02/22 09:32:49;;;;;;;13.65;6.97;;;10.30;99.90;;;;;;5043545;28;20497;-74
2023/02/22 09:35:15;;;;;;;14.57;7.03;;;10.50;99.90;;;;;;5003649;28;20440;-75
2023/02/22 09:37:43;;;;;;;10.18;5.95;;;10.50;99.90;;;;;;4996895;28;20127;-75
2023/02/22 09:40:16;;;;;;;13.18;7.28;;;10.50;99.90;;;;;;5003814;28;20052;-74
2023/02/22 09:42:46;;;;;;;11.98;6.55;;;10.60;99.90;;;;;;5019966;28;20045;-74
2023/02/22 09:45:15;;;;;;;14.80;7.47;;;10.50;99.90;;;;;;5010408;28;20128;-75
2023/02/22 09:48:01;;;;;;;14.18;7.05;;;10.60;99.90;;;;;;5024970;28;20038;-75
2023/02/22 09:50:36;;;;;;;14.32;7.65;;;10.70;99.90;;;;;;5009884;28;20131;-75
2023/02/22 09:53:16;;;;;;;14.38;7.82;;;10.90;99.90;;;;;;5015444;28;20049;-75
2023/02/22 09:55:49;;;;;;;14.40;7.10;;;11.10;99.90;;;;;;5033177;28;20033;-75
2023/02/22 09:58:23;;;;;;;12.38;6.95;;;11.20;99.90;;;;;;5003488;28;20081;-74
2023/02/22 10:00:52;;;;;;;12.02;6.22;;;11.40;99.90;;;;;;5025052;28;20386;-75
2023/02/22 10:03:28;;;;;;;15.35;8.20;;;11.50;99.90;;;;;;5026534;28;20508;-75
2023/02/22 10:06:11;;;;;;;14.70;7.47;;;11.40;99.90;;;;;;4987059;28;20418;-75
2023/02/22 10:08:37;;;;;;;15.05;8.57;;;11.50;99.90;;;;;;5008918;28;20192;-75
2023/02/22 10:11:31;;;;;;;13.88;7.68;;;11.50;99.90;;;;;;5025712;28;20850;-75
2023/02/22 10:14:03;;;;;;;13.00;7.40;;;11.60;99.90;;;;;;5019176;28;20045;-75
2023/02/22 10:16:33;;;;;;;13.63;6.65;;;11.70;99.90;;;;;;5030874;28;20048;-75
2023/02/22 10:19:17;;;;;;;13.77;7.50;;;11.90;99.90;;;;;;5004087;28;20428;-74
2023/02/22 10:21:57;;;;;;;16.20;8.32;;;12.10;99.90;;;;;;5019718;28;20052;-75
2023/02/22 10:24:56;;;;;;;15.40;8.27;;;12.10;99.90;;;;;;5032464;28;20150;-74
2023/02/22 10:27:29;;;;;;;14.82;8.02;;;12.00;99.90;;;;;;5008378;28;20099;-74
2023/02/22 10:30:19;;;;;;;13.25;7.75;;;12.10;99.90;;;;;;5023948;28;20054;-74
2023/02/22 10:32:47;;;;;;;14.45;7.68;;;12.10;99.90;;;;;;5030934;28;20045;-75
2023/02/22 10:35:21;;;;;;;15.57;8.68;;;12.10;99.90;;;;;;5019663;28;20112;-75
2023/02/22 10:37:51;;;;;;;15.80;8.60;;;12.20;99.90;;;;;;5040611;28;20042;-75
2023/02/22 10:40:30;;;;;;;17.60;8.88;;;12.30;99.90;;;;;;5019815;28;20037;-74
2023/02/22 10:43:14;;;;;;;15.00;7.85;;;12.20;99.90;;;;;;5022430;28;20124;-75
2023/02/22 10:45:40;;;;;;;14.73;8.07;;;12.30;99.90;;;;;;5018317;28;20097;-75
2023/02/22 10:48:11;;;;;;;15.77;9.30;;;12.40;99.90;;;;;;5013517;28;20588;-75
2023/02/22 10:50:39;;;;;;;19.00;10.10;;;12.60;99.90;;;;;;4996238;28;20054;-75
2023/02/22 10:53:06;;;;;;;25.63;9.95;;;12.60;99.90;;;;;;5021438;28;20103;-75
2023/02/22 10:55:32;;;;;;;20.17;9.57;;;12.60;99.90;;;;;;5040395;28;20060;-74
2023/02/22 10:58:05;;;;;;;19.95;10.48;;;12.70;99.90;;;;;;5020176;28;20041;-74
2023/02/22 11:00:36;;;;;;;17.65;9.45;;;12.80;99.90;;;;;;5000822;28;20042;-75
2023/02/22 11:03:05;;;;;;;17.95;9.95;;;13.00;99.90;;;;;;5008047;28;20473;-75
2023/02/22 11:05:36;;;;;;;18.15;10.50;;;12.90;99.90;;;;;;5002829;28;20053;-74
2023/02/22 11:08:20;;;;;;;19.15;10.70;;;12.90;99.90;;;;;;5008096;28;20065;-75
2023/02/22 11:10:46;;;;;;;19.05;10.35;;;13.10;99.90;;;;;;5020027;28;20084;-75
2023/02/22 11:13:33;;;;;;;18.95;10.20;;;13.40;99.90;;;;;;5002221;28;20060;-74
2023/02/22 11:16:17;;;;;;;17.90;9.43;;;13.90;99.90;;;;;;5001609;28;20050;-75
2023/02/22 11:18:43;;;;;;;17.13;9.25;;;14.30;99.90;;;;;;5018283;28;20046;-75
2023/02/22 11:21:10;;;;;;;22.63;10.70;;;14.70;99.90;;;;;;5011578;28;20056;-75
2023/02/22 11:23:38;;;;;;;19.83;10.13;;;15.20;99.90;;;;;;5013623;28;20049;-75
2023/02/22 11:26:06;;;;;;;17.37;10.03;;;15.20;99.90;;;;;;5028373;28;20121;-75
2023/02/22 11:28:32;;;;;;;15.63;9.38;;;14.90;99.90;;;;;;5019758;28;20050;-75
2023/02/22 11:31:26;;;;;;;18.02;10.27;;;15.00;99.90;;;;;;5005157;28;20056;-76
2023/02/22 11:33:57;;;;;;;20.67;11.32;;;15.00;99.90;;;;;;5007232;28;20453;-76
2023/02/22 11:36:39;;;;;;;16.48;9.48;;;14.90;99.90;;;;;;5006307;28;20041;-76
2023/02/22 11:39:26;;;;;;;16.65;10.27;;;15.30;99.90;;;;;;5004727;28;20050;-76
2023/02/22 11:41:53;;;;;;;17.10;9.70;;;14.90;99.90;;;;;;5020122;28;20045;-76
2023/02/22 11:44:27;;;;;;;19.58;9.80;;;14.70;99.90;;;;;;5014274;28;20049;-75
2023/02/22 11:46:54;;;;;;;17.15;10.10;;;15.00;99.90;;;;;;5008410;28;20046;-76
2023/02/22 11:49:22;;;;;;;16.58;9.63;;;15.30;99.90;;;;;;5023721;28;20787;-76
2023/02/22 11:52:11;;;;;;;21.10;11.40;;;15.50;99.90;;;;;;5011736;28;20379;-76
2023/02/22 11:54:51;;;;;;;19.45;10.75;;;15.60;99.90;;;;;;5025905;28;20045;-76
2023/02/22 11:57:29;;;;;;;18.20;10.20;;;15.50;99.90;;;;;;5021242;28;20041;-75
2023/02/22 12:00:23;;;;;;;16.13;10.27;;;15.30;99.90;;;;;;5025334;28;20037;-76
2023/02/22 12:02:52;;;;;;;19.77;10.65;;;15.20;99.90;;;;;;5012337;28;20038;-76
2023/02/22 12:05:36;;;;;;;18.45;10.63;;;14.90;99.90;;;;;;5018749;28;20041;-75
2023/02/22 12:08:01;;;;;;;15.82;9.27;;;14.90;99.90;;;;;;5019708;28;20133;-76
2023/02/22 12:10:46;;;;;;;15.23;9.15;;;14.80;99.90;;;;;;5015369;28;20129;-75
2023/02/22 12:13:31;;;;;;;14.40;8.68;;;14.50;99.90;;;;;;5019029;28;20041;-76
2023/02/22 12:16:23;;;;;;;17.90;9.60;;;14.70;99.90;;;;;;5022207;28;20041;-75
2023/02/22 12:19:30;;;;;;;17.27;9.23;;;14.90;99.90;;;;;;5020760;28;20129;-75
2023/02/22 12:22:01;;;;;;;16.15;9.65;;;15.00;99.90;;;;;;5002365;28;20390;-75
2023/02/22 12:24:35;;;;;;;18.15;9.88;;;15.30;99.90;;;;;;5015105;28;20343;-75
2023/02/22 12:27:22;;;;;;;16.38;10.20;;;15.20;99.90;;;;;;4993857;28;20049;-75
2023/02/22 12:30:04;;;;;;;15.97;9.30;;;15.70;99.90;;;;;;5018601;28;20075;-75
2023/02/22 12:32:40;;;;;;;15.70;8.52;;;15.90;99.90;;;;;;5029768;28;20732;-75
2023/02/22 12:35:12;;;;;;;14.73;8.60;;;16.30;99.90;;;;;;5006707;28;20054;-75
2023/02/22 12:37:49;;;;;;;15.35;8.32;;;16.30;99.90;;;;;;5011495;28;20075;-75
2023/02/22 12:40:38;;;;;;;13.05;8.18;;;16.50;99.90;;;;;;5044355;28;20041;-76
2023/02/22 12:43:35;;;;;;;12.65;7.28;;;17.10;99.90;;;;;;5027508;28;20042;-75
2023/02/22 12:46:05;;;;;;;13.23;7.53;;;17.60;99.90;;;;;;5027998;28;20569;-76
2023/02/22 12:48:38;;;;;;;13.45;8.05;;;17.60;99.90;;;;;;5019724;28;20052;-76
2023/02/22 12:51:25;;;;;;;13.32;7.32;;;17.60;99.90;;;;;;5005454;28;20057;-75
2023/02/22 12:54:06;;;;;;;14.95;7.97;;;17.60;99.80;;;;;;5021221;28;20053;-76
2023/02/22 12:56:56;;;;;;;12.82;7.95;;;17.00;99.90;;;;;;5011177;28;20065;-76